地図

経路データ

SID SEASON NUMBER BASIN SUBBASIN NAME ISO_TIME NATURE LAT LON WMO_WIND WMO_PRES WMO_AGENCY TRACK_TYPE DIST2LAND LANDFALL IFLAG USA_AGENCY USA_ATCF_ID USA_LAT USA_LON USA_RECORD USA_STATUS USA_WIND USA_PRES USA_SSHS USA_R34_NE USA_R34_SE USA_R34_SW USA_R34_NW USA_R50_NE USA_R50_SE USA_R50_SW USA_R50_NW USA_R64_NE USA_R64_SE USA_R64_SW USA_R64_NW USA_POCI USA_ROCI USA_RMW USA_EYE TOKYO_LAT TOKYO_LON TOKYO_GRADE TOKYO_WIND TOKYO_PRES TOKYO_R50_DIR TOKYO_R50_LONG TOKYO_R50_SHORT TOKYO_R30_DIR TOKYO_R30_LONG TOKYO_R30_SHORT TOKYO_LAND CMA_LAT CMA_LON CMA_CAT CMA_WIND CMA_PRES HKO_LAT HKO_LON HKO_CAT HKO_WIND HKO_PRES NEWDELHI_LAT NEWDELHI_LON NEWDELHI_GRADE NEWDELHI_WIND NEWDELHI_PRES NEWDELHI_CI NEWDELHI_DP NEWDELHI_POCI REUNION_LAT REUNION_LON REUNION_TYPE REUNION_WIND REUNION_PRES REUNION_TNUM REUNION_CI REUNION_RMW REUNION_R34_NE REUNION_R34_SE REUNION_R34_SW REUNION_R34_NW REUNION_R50_NE REUNION_R50_SE REUNION_R50_SW REUNION_R50_NW REUNION_R64_NE REUNION_R64_SE REUNION_R64_SW REUNION_R64_NW BOM_LAT BOM_LON BOM_TYPE BOM_WIND BOM_PRES BOM_TNUM BOM_CI BOM_RMW BOM_R34_NE BOM_R34_SE BOM_R34_SW BOM_R34_NW BOM_R50_NE BOM_R50_SE BOM_R50_SW BOM_R50_NW BOM_R64_NE BOM_R64_SE BOM_R64_SW BOM_R64_NW BOM_ROCI BOM_POCI BOM_EYE BOM_POS_METHOD BOM_PRES_METHOD NADI_LAT NADI_LON NADI_CAT NADI_WIND NADI_PRES WELLINGTON_LAT WELLINGTON_LON WELLINGTON_WIND WELLINGTON_PRES DS824_LAT DS824_LON DS824_STAGE DS824_WIND DS824_PRES TD9636_LAT TD9636_LON TD9636_STAGE TD9636_WIND TD9636_PRES TD9635_LAT TD9635_LON TD9635_WIND TD9635_PRES TD9635_ROCI NEUMANN_LAT NEUMANN_LON NEUMANN_CLASS NEUMANN_WIND NEUMANN_PRES MLC_LAT MLC_LON MLC_CLASS MLC_WIND MLC_PRES USA_GUST BOM_GUST BOM_GUST_PER REUNION_GUST REUNION_GUST_PER USA_SEAHGT USA_SEARAD_NE USA_SEARAD_SE USA_SEARAD_SW USA_SEARAD_NW STORM_SPEED STORM_DIR
1934182N14120 1934 28 WP MM NOT_NAMED 1934-07-01 10:00:00 NR 14.4000 120.000 main 39 39 __________O___ -1 14.4000 120.000 7 12 286
1934182N14120 1934 28 WP MM NOT_NAMED 1934-07-01 12:00:00 NR 14.5074 119.613 main 63 63 __________P___ -1 14.5074 119.613 7 12 286
1934182N14120 1934 28 WP MM NOT_NAMED 1934-07-01 15:00:00 NR 14.6651 119.033 main 118 118 __________P___ -1 14.6651 119.033 7 12 285
1934182N14120 1934 28 WP MM NOT_NAMED 1934-07-01 18:00:00 NR 14.8157 118.457 main 164 174 __________P___ -1 14.8157 118.457 7 11 285
1934182N14120 1934 28 WP MM NOT_NAMED 1934-07-01 21:00:00 NR 14.9561 117.888 main 219 219 __________P___ -1 14.9561 117.888 7 11 284
1934182N14120 1934 28 WP MM NOT_NAMED 1934-07-01 22:00:00 NR 15.0000 117.700 main 240 240 __________O___ -1 15.0000 117.700 7 11 283
1934182N14120 1934 28 WP MM NOT_NAMED 1934-07-02 00:00:00 NR 15.0834 117.327 main 276 276 __________P___ -1 15.0834 117.327 7 11 283
1934182N14120 1934 28 WP MM NOT_NAMED 1934-07-02 03:00:00 NR 15.2024 116.775 main 323 333 __________P___ -1 15.2024 116.775 7 11 283
1934182N14120 1934 28 WP MM NOT_NAMED 1934-07-02 06:00:00 NR 15.3224 116.227 main 382 382 __________P___ -1 15.3224 116.227 7 11 283
1934182N14120 1934 28 WP MM NOT_NAMED 1934-07-02 09:00:00 NR 15.4527 115.682 main 431 431 __________P___ -1 15.4527 115.682 7 11 284
1934182N14120 1934 28 WP MM NOT_NAMED 1934-07-02 10:00:00 NR 15.5000 115.500 main 453 453 __________O___ -1 15.5000 115.500 7 11 286
1934182N14120 1934 28 WP MM NOT_NAMED 1934-07-02 12:00:00 NR 15.5994 115.149 main 494 494 __________P___ -1 15.5994 115.149 7 11 287
1934182N14120 1934 28 WP MM NOT_NAMED 1934-07-02 15:00:00 NR 15.7613 114.622 main 546 501 __________P___ -1 15.7613 114.622 7 11 288
1934182N14120 1934 28 WP MM NOT_NAMED 1934-07-02 18:00:00 NR 15.9388 114.080 main 501 438 __________P___ -1 15.9388 114.080 7 11 289
1934182N14120 1934 28 WP MM NOT_NAMED 1934-07-02 21:00:00 NR 16.1321 113.503 main 438 415 __________P___ -1 16.1321 113.503 7 12 289
1934182N14120 1934 28 WP MM NOT_NAMED 1934-07-02 22:00:00 NR 16.2000 113.300 main 415 377 __________O___ -1 16.2000 113.300 7 13 288
1934182N14120 1934 28 WP MM NOT_NAMED 1934-07-03 00:00:00 NR 16.3332 112.870 main 377 311 __________P___ -1 16.3332 112.870 7 13 288
1934182N14120 1934 28 WP MM NOT_NAMED 1934-07-03 03:00:00 NR 16.5456 112.187 main 311 239 __________P___ -1 16.5456 112.187 7 14 288
1934182N14120 1934 28 WP MM NOT_NAMED 1934-07-03 06:00:00 NR 16.7731 111.473 main 239 171 __________P___ -1 16.7731 111.473 7 15 289
1934182N14120 1934 28 WP MM NOT_NAMED 1934-07-03 09:00:00 NR 17.0157 110.744 main 171 149 __________P___ -1 17.0157 110.744 7 15 289
1934182N14120 1934 28 WP MM NOT_NAMED 1934-07-03 10:00:00 NR 17.1000 110.500 main 149 105 __________O___ -1 17.1000 110.500 7 15 290
1934182N14120 1934 28 WP MM NOT_NAMED 1934-07-03 12:00:00 NR 17.2737 110.014 main 105 78 __________P___ -1 17.2737 110.014 7 15 291
1934182N14120 1934 28 WP MM NOT_NAMED 1934-07-03 15:00:00 NR 17.5444 109.288 main 81 74 __________P___ -1 17.5444 109.288 7 15 292
1934182N14120 1934 28 WP MM NOT_NAMED 1934-07-03 18:00:00 NR 17.8234 108.565 main 79 70 __________P___ -1 17.8234 108.565 7 15 292
1934182N14120 1934 28 WP MM NOT_NAMED 1934-07-03 21:00:00 NR 18.1059 107.841 main 105 105 __________P___ -1 18.1059 107.841 7 15 292
1934182N14120 1934 28 WP MM NOT_NAMED 1934-07-03 22:00:00 NR 18.2000 107.600 main 120 __________O___ -1 18.2000 107.600 7 15 292

デジタル台風データ・検索

IBTrACS Databaseについて

本データベースは、米国NOAAが公開する1842年以降の世界の熱帯低気圧のベストトラックデータアーカイブInternational Best Track Archive for Climate Stewardship (IBTrACS)を、ウェブで閲覧しやすい形式に変換したものです。

最終更新日:2021-12-08